Latest Weather Observations for Hopetoun North

IDW60801

Issued at 7:53 pm WST Monday 19 November 2018 (issued every 10 minutes, with the page automatically refreshed every 10 minutes)

About weather observations | Map of weather stations | Latest weather observations for WA | Other Formats
Station Details ID: 009961 Name: HOPETOUN NORTH Lat: -33.93 Lon: 120.13 Height: 26.0 m
Data from the previous 72 hours. | See also: Recent months at Hopetoun North
Date/Time
WST
Temp
°C
App
Temp
°C
Dew
Point
°C
Rel
Hum
%
Delta-T
°C
Wind Press
QNH
hPa
Press
MSL
hPa
Rain since
9am
mm
Dir  Spd
km/h
Gust
km/h
Spd
kts
Gust
kts
19/07:30pm 13.6 7.4 6.0 60 3.6 SSW 28 39 15 21 1020.2 1020.1 0.0
19/07:00pm 13.8 7.1 5.7 58 3.8 SSW 30 43 16 23 1019.8 1019.7 0.0
19/06:30pm 13.8 7.0 6.7 62 3.4 SW 32 43 17 23 1019.6 1019.5 0.0
19/06:01pm 14.1 7.8 7.6 65 3.2 SSW 30 56 16 30 1019.1 1019.0 0.0
19/06:00pm 14.2 7.9 7.3 63 3.4 SSW 30 39 16 21 1019.1 1019.0 0.0
19/05:30pm 14.0 7.3 7.3 64 3.3 SSW 32 48 17 26 1018.9 1018.8 0.0
19/05:00pm 14.2 7.7 6.3 59 3.8 SW 30 43 16 23 1018.6 1018.5 0.0
19/04:30pm 13.0 7.2 9.4 79 1.8 SSW 30 54 16 29 1018.4 1018.3 0.0
19/04:21pm 13.9 7.8 8.3 69 2.8 SSW 30 54 16 29 1018.2 1018.1 0.0
19/04:00pm 14.5 7.4 8.2 66 3.1 SSW 35 48 19 26 1017.9 1017.8 0.0
19/03:30pm 15.1 8.2 9.0 67 3.1 SSW 35 52 19 28 1017.6 1017.5 0.0
19/03:00pm 15.0 8.0 9.8 71 2.7 SSW 37 54 20 29 1017.3 1017.2 0.0
19/02:30pm 16.1 9.3 9.1 63 3.6 SSW 35 50 19 27 1017.2 1017.1 0.0
19/02:06pm 16.0 9.0 10.1 68 3.1 SSW 37 57 20 31 1017.1 1017.0 0.0
19/02:00pm 17.0 10.3 9.7 62 3.8 SW 35 52 19 28 1017.2 1017.1 0.0
19/01:30pm 17.5 10.9 10.1 62 3.9 SW 35 50 19 27 1017.1 1017.0 0.0
19/01:00pm 17.1 10.9 9.3 60 4.1 SSW 32 43 17 23 1017.2 1017.1 0.0
19/12:30pm 17.3 10.9 7.1 51 5.1 SSW 30 43 16 23 1017.1 1017.0 0.0
19/12:00pm 18.1 11.8 7.5 50 5.4 SSW 30 39 16 21 1017.1 1017.0 0.0
19/11:30am 17.7 12.5 7.2 50 5.3 SW 24 30 13 16 1017.2 1017.1 0.0
19/11:00am 18.4 12.7 6.6 46 5.9 SW 26 35 14 19 1017.3 1017.2 0.0
19/10:30am 17.3 11.2 4.9 44 5.9 SW 26 35 14 19 1017.4 1017.3 0.0
19/10:00am 17.2 10.4 5.2 45 5.8 SW 30 43 16 23 1017.2 1017.1 0.0
19/09:30am 18.5 12.5 5.4 42 6.4 SW 26 37 14 20 1017.1 1017.0 0.0
19/09:00am 17.7 12.2 3.9 40 6.5 WSW 22 32 12 17 1017.0 1016.9 0.2
19/08:30am 16.9 10.6 3.6 41 6.2 WSW 26 39 14 21 1017.0 1016.9 0.2
19/08:00am 16.3 10.5 6.2 51 4.9 WSW 26 39 14 21 1017.0 1016.9 0.2
19/07:30am 15.7 10.7 6.4 54 4.5 WSW 22 30 12 16 1016.8 1016.7 0.2
19/07:00am 15.1 11.4 6.1 55 4.3 WSW 15 26 8 14 1016.6 1016.5 0.2
19/06:30am 13.9 10.3 6.7 62 3.5 W 15 26 8 14 1016.4 1016.3 0.2
19/06:00am 13.2 9.7 7.2 67 2.9 W 15 24 8 13 1016.1 1016.0 0.2
19/05:30am 14.0 9.7 7.8 66 3.1 WSW 20 33 11 18 1015.6 1015.5 0.2
19/05:00am 13.9 9.3 8.1 68 2.9 SW 22 32 12 17 1015.2 1015.2 0.2
19/04:30am 13.9 9.1 8.9 72 2.5 SW 24 33 13 18 1014.7 1014.7 0.2
19/04:00am 13.8 9.2 9.6 76 2.2 WSW 24 37 13 20 1014.3 1014.3 0.2
19/03:30am 13.1 11.4 11.2 88 1.0 W 11 19 6 10 1014.1 1014.1 0.2
19/03:00am 13.0 10.6 10.2 83 1.4 SW 13 26 7 14 1014.1 1014.1 0.2
19/02:30am 13.0 9.4 10.7 86 1.2 SW 20 37 11 20 1014.0 1014.0 0.2
19/02:00am 13.0 9.6 10.7 86 1.2 SW 19 28 10 15 1013.8 1013.8 0.0
19/01:30am 13.2 9.4 11.1 87 1.1 SSW 22 33 12 18 1013.8 1013.8 0.0
19/01:00am 13.8 10.9 11.1 84 1.4 SW 17 24 9 13 1013.8 1013.8 0.0
19/12:30am 13.9 9.4 11.4 85 1.3 SSW 26 39 14 21 1013.8 1013.8 0.0
19/12:00am 14.4 11.6 11.2 81 1.7 SSW 17 24 9 13 1013.9 1013.9 0.0
 
Date/Time
WST
Temp
°C
App
Temp
°C
Dew
Point
°C
Rel
Hum
%
Delta-T
°C
Wind Press
QNH
hPa
Press
MSL
hPa
Rain since
9am
mm
Dir  Spd
km/h
Gust
km/h
Spd
kts
Gust
kts
18/11:30pm 13.6 9.6 11.8 89 1.0 SSW 24 35 13 19 1014.1 1014.1 0.0
18/11:00pm 13.8 9.5 12.0 89 1.0 SSW 26 39 14 21 1014.0 1014.0 0.0
18/10:30pm 15.3 11.3 10.5 73 2.5 SSW 22 32 12 17 1013.9 1013.9 0.0
18/10:00pm 15.4 11.2 11.0 75 2.3 SSW 24 35 13 19 1014.0 1014.0 0.0
18/09:30pm 15.1 10.6 11.3 78 2.0 SSW 26 37 14 20 1013.9 1013.9 0.0
18/09:00pm 15.8 11.2 12.2 79 2.0 S 28 43 15 23 1013.8 1013.8 0.0
18/08:30pm 15.8 11.3 12.7 82 1.7 SSW 28 43 15 23 1013.4 1013.4 0.0
18/08:00pm 15.9 10.6 13.0 83 1.6 SSW 33 46 18 25 1013.0 1013.0 0.0
18/07:30pm 16.1 11.1 13.4 84 1.5 SSW 32 44 17 24 1012.5 1012.5 0.0
18/07:00pm 17.1 12.2 14.4 84 1.5 SW 33 50 18 27 1012.0 1012.0 0.0
18/06:30pm 17.7 12.8 14.2 80 2.0 SW 33 46 18 25 1011.3 1011.3 0.0
18/06:00pm 18.3 13.6 14.4 78 2.3 SW 32 43 17 23 1010.7 1010.7 0.0
18/05:30pm 18.9 16.2 14.6 76 2.5 SSW 22 33 12 18 1010.3 1010.3 0.0
18/05:00pm 19.5 16.5 13.7 69 3.3 SSW 22 30 12 16 1009.7 1009.7 0.0
18/04:30pm 20.1 17.6 13.6 66 3.7 S 19 24 10 13 1009.3 1009.3 0.0
18/04:00pm 20.6 18.2 12.8 61 4.4 SSE 17 20 9 11 1008.6 1008.6 0.0
18/03:30pm 20.9 18.3 13.1 61 4.5 S 19 24 10 13 1008.7 1008.7 0.0
18/03:00pm 21.2 18.1 12.3 57 5.0 S 20 30 11 16 1008.7 1008.7 0.0
18/02:30pm 21.1 18.0 12.3 57 5.0 S 20 28 11 15 1008.6 1008.6 0.0
18/02:00pm 22.3 19.5 12.5 53 5.6 S 19 26 10 14 1008.7 1008.7 0.0
18/01:30pm 21.6 18.5 12.2 55 5.3 S 20 28 11 15 1008.7 1008.7 0.0
18/01:00pm 21.3 18.0 11.6 54 5.4 S 20 28 11 15 1009.1 1009.1 0.0
18/12:30pm 21.5 18.1 12.4 56 5.1 S 22 28 12 15 1009.3 1009.3 0.0
18/12:00pm 20.7 17.6 12.1 58 4.8 S 20 28 11 15 1009.4 1009.4 0.0
18/11:30am 20.6 17.5 12.1 58 4.8 S 20 30 11 16 1009.4 1009.4 0.0
18/11:00am 22.1 18.8 11.5 51 5.9 SW 20 30 11 16 1009.6 1009.6 0.0
18/10:30am 21.0 17.2 11.3 54 5.4 SSW 22 30 12 16 1009.9 1009.9 0.0
18/10:00am 21.1 18.7 11.4 54 5.4 SSW 15 24 8 13 1010.2 1010.2 0.0
18/09:30am 20.1 17.5 12.1 60 4.5 SSW 17 24 9 13 1010.5 1010.5 0.0
18/09:00am 19.3 17.0 11.8 62 4.2 SW 15 24 8 13 1010.6 1010.6 0.2
18/08:30am 19.1 16.7 11.4 61 4.2 WSW 15 26 8 14 1010.8 1010.8 0.2
18/08:00am 17.6 14.4 11.4 67 3.4 WSW 19 24 10 13 1010.9 1010.9 0.2
18/07:30am 17.4 13.7 11.4 68 3.3 WSW 22 33 12 18 1010.7 1010.7 0.2
18/07:00am 17.2 13.8 11.2 68 3.2 WSW 20 32 11 17 1010.4 1010.4 0.2
18/06:30am 17.1 13.2 12.0 72 2.8 WSW 24 35 13 19 1010.0 1010.0 0.2
18/06:00am 16.7 12.5 12.5 76 2.3 WSW 26 35 14 19 1009.7 1009.7 0.2
18/05:30am 16.9 15.1 13.2 79 2.1 WSW 15 28 8 15 1009.3 1009.3 0.2
18/05:00am 16.9 14.0 13.0 78 2.2 SW 20 32 11 17 1009.0 1009.0 0.2
18/04:30am 16.9 13.6 12.8 77 2.3 WSW 22 33 12 18 1008.5 1008.5 0.2
18/04:00am 17.1 14.0 13.4 79 2.1 WSW 22 32 12 17 1008.2 1008.2 0.2
18/03:30am 17.1 14.1 13.6 80 2.0 SW 22 33 12 18 1008.0 1008.0 0.2
18/03:00am 17.0 13.6 13.7 81 1.9 SW 24 39 13 21 1007.8 1007.8 0.2
18/02:30am 17.2 13.9 14.1 82 1.8 WSW 24 32 13 17 1007.7 1007.7 0.2
18/02:00am 17.3 14.5 14.4 83 1.7 WSW 22 32 12 17 1007.7 1007.7 0.2
18/01:30am 17.3 14.1 14.2 82 1.8 SW 24 39 13 21 1007.8 1007.8 0.2
18/01:00am 17.3 14.1 14.2 82 1.8 SW 24 33 13 18 1007.9 1007.9 0.2
18/12:30am 17.4 14.7 14.7 84 1.6 SW 22 39 12 21 1008.0 1008.0 0.2
18/12:00am 17.6 14.3 14.9 84 1.6 SW 26 35 14 19 1008.3 1008.3 0.2
 
Date/Time
WST
Temp
°C
App
Temp
°C
Dew
Point
°C
Rel
Hum
%
Delta-T
°C
Wind Press
QNH
hPa
Press
MSL
hPa
Rain since
9am
mm
Dir  Spd
km/h
Gust
km/h
Spd
kts
Gust
kts
17/11:30pm 17.6 14.3 15.0 85 1.5 SW 26 35 14 19 1008.8 1008.8 0.2
17/11:00pm 17.7 14.8 15.1 85 1.5 SW 24 35 13 19 1008.7 1008.7 0.2
17/10:30pm 17.5 13.7 15.7 89 1.1 SW 30 39 16 21 1009.0 1009.0 0.2
17/10:00pm 17.7 14.5 16.4 92 0.8 SW 28 39 15 21 1009.0 1009.0 0.2
17/09:30pm 17.9 14.3 16.2 90 1.0 SW 30 44 16 24 1008.6 1008.6 0.2
17/09:00pm 18.5 15.3 17.2 92 0.8 SW 30 41 16 22 1008.3 1008.3 0.2
17/08:30pm 19.0 15.6 16.8 87 1.3 SW 30 39 16 21 1007.9 1007.9 0.2
17/08:00pm 19.6 16.4 16.3 81 2.0 SW 28 39 15 21 1007.5 1007.5 0.2
17/07:30pm 19.5 16.9 16.9 85 1.6 SW 26 35 14 19 1007.1 1007.1 0.2
17/07:00pm 20.0 18.9 17.2 84 1.7 SW 19 24 10 13 1006.6 1006.6 0.2
17/06:30pm 20.6 19.9 16.4 77 2.5 SW 15 20 8 11 1005.9 1005.9 0.2
17/06:00pm 21.4 19.9 16.4 73 3.0 SW 19 28 10 15 1005.8 1005.8 0.2
17/05:30pm 23.7 24.4 15.7 61 4.8 SSW 6 11 3 6 1004.6 1004.6 0.2
17/05:00pm 25.1 24.7 15.1 53 6.0 SE 11 15 6 8 1004.1 1004.1 0.2
17/04:30pm 26.7 26.7 15.1 49 7.0 SE 9 13 5 7 1003.8 1003.8 0.2
17/04:00pm 25.3 24.6 15.3 54 6.1 SSE 13 22 7 12 1003.9 1003.9 0.2
17/03:30pm 26.1 24.7 15.5 52 6.4 SSE 17 24 9 13 1003.8 1003.8 0.2
17/03:00pm 30.1 28.4 12.5 34 10.4 SE 13 22 7 12 1003.7 1003.7 0.2
17/02:47pm 30.4 29.6 12.8 34 10.4 E 9 15 5 8 1004.0 1004.0 0.2
17/02:30pm 35.7 33.7 8.5 19 15.4 NNW 9 19 5 10 1004.2 1004.2 0.2
17/02:00pm 36.2 33.1 8.9 19 15.7 NNW 15 20 8 11 1004.6 1004.6 0.2
17/01:30pm 34.9 31.4 8.6 20 14.9 NW 17 26 9 14 1005.2 1005.2 0.2
17/01:00pm 34.6 30.1 8.4 20 14.8 NW 22 39 12 21 1005.7 1005.7 0.2
17/12:30pm 35.0 30.0 7.9 19 15.2 NNW 24 39 13 21 1005.7 1005.7 0.2
17/12:00pm 35.0 29.8 7.1 18 15.5 N 24 41 13 22 1006.3 1006.3 0.2
17/11:30am 33.8 28.4 6.2 18 15.0 N 24 39 13 21 1006.7 1006.7 0.2
17/11:00am 33.8 28.7 6.2 18 15.0 N 22 41 12 22 1007.2 1007.2 0.2
17/10:30am 33.3 27.6 6.6 19 14.5 N 26 37 14 20 1007.6 1007.6 0.2
17/10:00am 31.9 26.1 6.2 20 13.8 N 26 43 14 23 1007.9 1007.9 0.2
17/09:30am 31.3 24.6 5.7 20 13.6 N 30 50 16 27 1008.2 1008.2 0.2
17/09:09am 30.6 24.3 5.8 21 13.1 N 28 54 15 29 1008.4 1008.4 0.2
17/09:00am 30.3 23.7 6.2 22 12.8 N 30 44 16 24 1008.5 1008.5 0.2
17/08:30am 29.2 23.5 8.3 27 11.5 N 28 43 15 23 1009.2 1009.2 0.2
17/08:00am 27.6 23.1 8.5 30 10.4 N 22 35 12 19 1009.6 1009.6 0.2
17/07:30am 26.4 21.2 8.8 33 9.6 NNE 26 43 14 23 1009.6 1009.6 0.2
17/07:00am 24.8 20.5 9.5 38 8.4 NNE 22 35 12 19 1009.9 1009.9 0.2
17/06:30am 22.6 20.9 12.5 53 5.8 NNE 13 19 7 10 1010.5 1010.5 0.2
17/06:00am 20.3 19.2 14.2 68 3.5 NE 13 19 7 10 1011.0 1011.0 0.2
17/05:30am 18.9 19.5 15.4 80 2.1 ENE 6 11 3 6 1011.1 1011.1 0.2
17/05:00am 17.9 18.8 16.6 92 0.8 ESE 7 13 4 7 1011.3 1011.3 0.2
17/04:30am 17.9 17.3 16.6 92 0.8 ESE 15 19 8 10 1011.4 1011.4 0.2
17/04:00am 17.6 17.9 17.0 96 0.4 SE 11 17 6 9 1011.9 1011.9 0.2
17/03:30am 16.5 18.0 15.7 95 0.5 ESE 2 7 1 4 1012.3 1012.3 0.2
17/03:00am 16.6 17.6 16.4 99 0.1 E 6 9 3 5 1012.5 1012.5 0.2
17/02:30am 16.1 17.8 16.1 100 0.0 ENE 2 6 1 3 1012.8 1012.8 0.2
17/02:00am 16.3 17.1 16.3 100 0.0 NNW 7 9 4 5 1013.3 1013.3 0.2
17/01:30am 16.7 17.3 16.7 100 0.0 SW 9 15 5 8 1013.0 1013.0 0.2
17/01:00am 16.3 18.0 16.1 99 0.1 NW 2 4 1 2 1013.3 1013.3 0.2
17/12:30am 16.8 17.7 16.6 99 0.1 NNE 7 11 4 6 1014.3 1014.3 0.2
17/12:00am 17.1 18.1 16.8 98 0.2 NNW 7 22 4 12 1015.0 1015.0 0.2
 
Date/Time
WST
Temp
°C
App
Temp
°C
Dew
Point
°C
Rel
Hum
%
Delta-T
°C
Wind Press
QNH
hPa
Press
MSL
hPa
Rain since
9am
mm
Dir  Spd
km/h
Gust
km/h
Spd
kts
Gust
kts
16/11:30pm 17.2 18.7 16.7 97 0.3 ESE 4 7 2 4 1014.3 1014.3 0.2
16/11:00pm 17.2 18.1 16.7 97 0.3 ESE 7 13 4 7 1014.2 1014.2 0.2
16/10:36pm 17.3 17.4 16.5 95 0.5 S 11 32 6 17 1014.2 1014.2 0.2
16/10:30pm 17.4 18.4 16.4 94 0.6 W 6 11 3 6 1016.4 1016.3 0.0
16/10:00pm 17.3 17.4 16.5 95 0.5 E 11 19 6 10 1015.6 1015.5 0.0
16/09:30pm 17.1 17.8 16.1 94 0.6 E 7 13 4 7 1016.4 1016.3 0.0
16/09:00pm 17.1 16.6 16.0 93 0.6 E 13 19 7 10 1016.7 1016.6 0.0
16/08:30pm 17.2 17.5 15.9 92 0.8 E 9 15 5 8 1017.2 1017.1 0.0
16/08:00pm 17.3 16.5 16.0 92 0.8 ENE 15 22 8 12 1017.4 1017.3 0.0

Other Formats:

Comma delimited format used in spreadsheet applications
http://www.bom.gov.au/fwo/IDW60801/IDW60801.95635.axf

JavaScript Object Notation format (JSON) in row-major order
http://www.bom.gov.au/fwo/IDW60801/IDW60801.95635.json